createdAt,value
2023-01-25T00:02:02.453Z,1.54
2023-01-25T00:06:04.063Z,1.51
2023-01-25T00:10:06.039Z,1.46
2023-01-25T00:14:07.870Z,1.44
2023-01-25T00:18:09.303Z,1.33
2023-01-25T00:22:10.768Z,1.49
2023-01-25T00:26:12.384Z,1.53
2023-01-25T00:30:14.102Z,1.59
2023-01-25T00:34:24.442Z,1.60
2023-01-25T00:38:33.885Z,1.17
2023-01-25T00:42:35.328Z,1.10
2023-01-25T00:46:36.824Z,0.86
2023-01-25T00:50:38.329Z,1.08
2023-01-25T00:54:39.929Z,1.21
2023-01-25T00:58:41.723Z,1.39
2023-01-25T01:02:43.230Z,1.38
2023-01-25T01:06:44.740Z,1.49
2023-01-25T01:10:46.178Z,1.53
2023-01-25T01:14:47.670Z,1.63
2023-01-25T01:18:49.177Z,1.67
2023-01-25T01:22:52.433Z,1.52
2023-01-25T01:26:53.895Z,1.43
2023-01-25T01:31:00.477Z,1.63
2023-01-25T01:35:01.927Z,1.55
2023-01-25T01:39:03.607Z,1.54
2023-01-25T01:43:07.813Z,1.65
2023-01-25T01:47:15.579Z,1.27
2023-01-25T01:51:40.080Z,1.51
2023-01-25T01:55:41.532Z,1.43
2023-01-25T02:00:14.502Z,1.34
2023-01-25T02:04:18.610Z,1.27
2023-01-25T02:08:21.119Z,1.58
2023-01-25T02:12:23.995Z,1.23
2023-01-25T02:16:27.698Z,1.54
2023-01-25T02:20:39.164Z,1.70
2023-01-25T02:24:47.236Z,1.77
2023-01-25T02:29:03.080Z,1.38
2023-01-25T02:33:04.586Z,1.64
2023-01-25T02:37:06.110Z,1.79
2023-01-25T02:41:13.743Z,1.81
2023-01-25T02:45:18.982Z,1.59
2023-01-25T02:49:20.778Z,1.80
2023-01-25T02:53:22.193Z,1.81
2023-01-25T02:57:23.736Z,1.73
2023-01-25T03:01:25.605Z,1.50
2023-01-25T03:05:27.182Z,1.58
2023-01-25T03:09:28.622Z,1.58
2023-01-25T03:13:31.911Z,1.29
2023-01-25T03:17:33.479Z,1.51
2023-01-25T03:21:35.003Z,1.47
2023-01-25T03:25:36.458Z,1.46
2023-01-25T03:29:38.235Z,1.44
2023-01-25T03:33:40.575Z,1.70
2023-01-25T03:37:42.111Z,1.64
2023-01-25T03:41:43.585Z,1.43
2023-01-25T03:45:45.172Z,1.54
2023-01-25T03:49:46.639Z,1.66
2023-01-25T03:53:48.088Z,1.76
2023-01-25T03:57:49.906Z,1.27
2023-01-25T04:01:51.612Z,1.45
2023-01-25T04:05:54.470Z,1.54
2023-01-25T04:09:55.891Z,1.37
2023-01-25T04:13:57.330Z,1.09
2023-01-25T04:17:58.794Z,1.12
2023-01-25T04:22:00.218Z,1.29
2023-01-25T04:26:08.276Z,1.29
2023-01-25T04:30:10.316Z,1.17
2023-01-25T04:34:11.744Z,0.72
2023-01-25T04:38:13.655Z,1.05
2023-01-25T04:42:15.182Z,1.22
2023-01-25T04:46:16.688Z,1.31
2023-01-25T04:50:18.170Z,0.88
2023-01-25T04:54:19.599Z,1.18
2023-01-25T04:58:21.778Z,1.38
2023-01-25T05:02:23.335Z,1.23
2023-01-25T05:06:24.844Z,1.21
2023-01-25T05:10:26.301Z,1.02
2023-01-25T05:14:27.764Z,0.97
2023-01-25T05:18:42.620Z,1.21
2023-01-25T05:22:48.749Z,1.09
2023-01-25T05:27:05.278Z,1.00
2023-01-25T05:31:06.837Z,1.14
2023-01-25T05:35:09.118Z,0.92
2023-01-25T05:39:10.772Z,1.01
2023-01-25T05:43:12.229Z,1.11
2023-01-25T05:47:15.750Z,1.14
2023-01-25T05:51:17.259Z,1.12
2023-01-25T05:55:18.847Z,1.08
2023-01-25T05:59:20.300Z,1.13
2023-01-25T06:03:21.786Z,1.32
2023-01-25T06:07:24.788Z,1.10
2023-01-25T06:11:26.299Z,0.67
2023-01-25T06:15:27.776Z,0.77
2023-01-25T06:19:29.226Z,0.95
2023-01-25T06:23:31.415Z,0.99
2023-01-25T06:27:32.911Z,1.00
2023-01-25T06:31:34.944Z,1.16
2023-01-25T06:35:36.663Z,1.14
2023-01-25T06:39:38.421Z,1.18
2023-01-25T06:43:40.047Z,0.49
2023-01-25T06:47:41.573Z,0.71
2023-01-25T06:51:43.009Z,0.41
2023-01-25T06:55:44.493Z,0.27
2023-01-25T06:59:45.970Z,0.44
2023-01-25T07:03:52.170Z,0.75
2023-01-25T07:07:53.596Z,0.49
2023-01-25T07:11:55.064Z,0.47
2023-01-25T07:16:05.894Z,0.46
2023-01-25T07:20:07.883Z,0.65
2023-01-25T07:24:14.438Z,0.34
2023-01-25T07:28:17.222Z,0.65
2023-01-25T07:32:18.673Z,0.68
2023-01-25T07:36:21.242Z,0.62
2023-01-25T07:40:25.396Z,0.53
2023-01-25T07:44:26.910Z,0.51
2023-01-25T07:48:28.585Z,0.51
2023-01-25T07:52:30.043Z,0.61
2023-01-25T07:56:40.736Z,0.46
2023-01-25T08:00:42.265Z,0.09
2023-01-25T08:04:45.411Z,0.49
2023-01-25T08:08:48.667Z,0.46
2023-01-25T08:12:50.063Z,0.12
2023-01-25T08:16:51.527Z,0.39
2023-01-25T08:20:53.049Z,0.38
2023-01-25T08:24:54.982Z,0.25
2023-01-25T08:28:57.106Z,0.48
2023-01-25T08:32:58.567Z,0.38
2023-01-25T08:37:00.780Z,0.04
2023-01-25T08:41:11.226Z,0.25
2023-01-25T08:45:12.696Z,0.44
2023-01-25T08:49:14.231Z,0.46
2023-01-25T08:53:15.715Z,0.03
2023-01-25T08:57:17.266Z,-0.01
2023-01-25T09:01:20.100Z,-0.18
2023-01-25T09:05:21.627Z,-0.09
2023-01-25T09:09:24.888Z,0.09
2023-01-25T09:13:26.363Z,0.03
2023-01-25T09:17:27.850Z,0.14
2023-01-25T09:21:30.095Z,0.39
2023-01-25T09:25:31.610Z,0.30
2023-01-25T09:29:33.105Z,-0.34
2023-01-25T09:33:36.841Z,-0.11
2023-01-25T09:37:39.027Z,-0.28
2023-01-25T09:42:15.791Z,-0.16
2023-01-25T09:46:41.495Z,0.04
2023-01-25T09:51:07.291Z,-0.04
2023-01-25T09:55:18.415Z,0.15
2023-01-25T09:59:26.273Z,0.40
2023-01-25T10:03:38.546Z,0.11
2023-01-25T10:08:02.129Z,0.03
2023-01-25T10:12:15.634Z,-0.06
2023-01-25T10:16:47.221Z,0.07
2023-01-25T10:21:17.874Z,0.14
2023-01-25T10:25:23.980Z,0.16
2023-01-25T10:29:33.700Z,0.16
2023-01-25T10:33:40.627Z,-0.03
2023-01-25T10:37:43.177Z,-0.03
2023-01-25T10:41:53.760Z,0.07
2023-01-25T10:45:55.254Z,0.17
2023-01-25T10:49:58.799Z,0.12
2023-01-25T10:54:03.153Z,0.10
2023-01-25T10:58:04.622Z,-0.02
2023-01-25T11:02:45.945Z,0.03
2023-01-25T11:06:50.289Z,0.05
2023-01-25T11:10:53.491Z,-0.27
2023-01-25T11:14:55.016Z,-0.18
2023-01-25T11:18:58.681Z,0.09
2023-01-25T11:23:00.134Z,0.26
2023-01-25T11:27:22.702Z,-0.04
2023-01-25T11:31:24.315Z,-0.18
2023-01-25T11:35:33.028Z,0.03
2023-01-25T11:39:54.030Z,-0.01
2023-01-25T11:44:06.304Z,-0.16
2023-01-25T11:48:43.557Z,-0.16
2023-01-25T11:53:09.240Z,0.19
2023-01-25T11:57:45.271Z,0.19
2023-01-25T12:01:49.384Z,-0.08
2023-01-25T12:06:10.086Z,0.07
2023-01-25T12:10:38.499Z,-0.20
2023-01-25T12:14:45.864Z,-0.12
2023-01-25T12:18:47.255Z,0.03
2023-01-25T12:23:01.698Z,-0.32
2023-01-25T12:27:31.326Z,-0.33
2023-01-25T12:31:38.692Z,-0.26
2023-01-25T12:36:05.771Z,-0.10
2023-01-25T12:40:17.290Z,-0.03
2023-01-25T12:44:21.630Z,0.08
2023-01-25T12:48:30.239Z,-0.16
2023-01-25T12:52:38.985Z,-0.29
2023-01-25T12:56:48.797Z,-0.32
2023-01-25T13:01:27.563Z,-0.42
2023-01-25T13:05:41.154Z,0.01
2023-01-25T13:09:57.624Z,0.18
2023-01-25T13:14:20.604Z,0.14
2023-01-25T13:18:24.764Z,-0.32
2023-01-25T13:22:49.562Z,-0.14
2023-01-25T13:26:59.530Z,0.05
2023-01-25T13:31:01.175Z,-0.15
2023-01-25T13:35:03.521Z,-0.57
2023-01-25T13:39:32.724Z,-0.30
2023-01-25T13:43:34.242Z,0.04
2023-01-25T13:47:38.168Z,-0.48
2023-01-25T13:51:40.819Z,-0.38
2023-01-25T13:55:46.471Z,-0.50
2023-01-25T13:59:49.615Z,-0.59
2023-01-25T14:03:56.598Z,-0.56
2023-01-25T14:07:58.088Z,-0.53
2023-01-25T14:12:02.257Z,-0.65
2023-01-25T14:16:09.127Z,-0.35
2023-01-25T14:20:19.531Z,-0.31
2023-01-25T14:24:21.074Z,-0.19
2023-01-25T14:28:22.683Z,-0.08
2023-01-25T14:32:26.529Z,0.24
2023-01-25T14:36:33.088Z,0.18
2023-01-25T14:40:34.628Z,-0.13
2023-01-25T14:44:36.566Z,0.05
2023-01-25T14:48:42.613Z,-0.22
2023-01-25T14:52:44.128Z,-0.12
2023-01-25T14:56:49.811Z,-0.49
2023-01-25T15:00:55.526Z,-0.34
2023-01-25T15:05:14.697Z,-0.17
2023-01-25T15:09:42.178Z,-0.13
2023-01-25T15:13:43.701Z,-0.21
2023-01-25T15:17:50.730Z,-0.08
2023-01-25T15:21:54.666Z,-0.16
2023-01-25T15:25:58.162Z,-0.20
2023-01-25T15:30:00.234Z,-0.46
2023-01-25T15:34:01.937Z,-0.43
2023-01-25T15:38:03.389Z,-0.22
2023-01-25T15:42:06.135Z,-0.31
2023-01-25T15:46:17.869Z,-0.49
2023-01-25T15:50:20.122Z,-0.51
2023-01-25T15:54:22.194Z,-0.59
2023-01-25T15:58:31.398Z,-0.51
2023-01-25T16:02:32.899Z,-0.39
2023-01-25T16:06:52.295Z,-0.31
2023-01-25T16:10:54.429Z,-0.42
2023-01-25T16:14:55.849Z,-0.48
2023-01-25T16:18:57.275Z,-0.56
2023-01-25T16:22:58.887Z,-0.66
2023-01-25T16:27:01.019Z,-0.40
2023-01-25T16:31:02.644Z,-0.63
2023-01-25T16:35:04.380Z,-0.63
2023-01-25T16:39:15.310Z,-0.43
2023-01-25T16:43:16.761Z,-0.59
2023-01-25T16:47:18.213Z,-0.45
2023-01-25T16:51:25.131Z,-0.55
2023-01-25T16:55:26.604Z,-0.74
2023-01-25T16:59:28.260Z,-0.51
2023-01-25T17:03:29.777Z,-0.73
2023-01-25T17:07:31.228Z,-0.67
2023-01-25T17:11:36.343Z,-0.63
2023-01-25T17:15:37.913Z,-0.80
2023-01-25T17:19:39.456Z,-1.05
2023-01-25T17:23:41.776Z,-0.73
2023-01-25T17:27:43.210Z,-0.58
2023-01-25T17:31:44.747Z,-0.61
2023-01-25T17:35:46.296Z,-0.54
2023-01-25T17:39:48.725Z,-0.98
2023-01-25T17:43:52.535Z,-0.94
2023-01-25T17:47:53.989Z,-0.85
2023-01-25T17:51:55.636Z,-1.03
2023-01-25T17:56:02.747Z,-0.96
2023-01-25T18:00:11.739Z,-1.13
2023-01-25T18:04:17.353Z,-0.96
2023-01-25T18:08:18.812Z,-1.12
2023-01-25T18:12:20.753Z,-1.23
2023-01-25T18:16:24.000Z,-1.10
2023-01-25T18:20:25.854Z,-1.06
2023-01-25T18:24:32.653Z,-0.80
2023-01-25T18:28:34.359Z,-1.07
2023-01-25T18:32:35.894Z,-0.86
2023-01-25T18:36:37.338Z,-0.93
2023-01-25T18:40:40.085Z,-1.17
2023-01-25T18:44:43.337Z,-1.09
2023-01-25T18:48:46.991Z,-1.10
2023-01-25T18:52:48.421Z,-1.06
2023-01-25T18:56:49.867Z,-1.04
2023-01-25T19:01:01.237Z,-1.03
2023-01-25T19:05:02.861Z,-1.24
2023-01-25T19:09:04.414Z,-1.09
2023-01-25T19:13:05.851Z,-1.22
2023-01-25T19:17:08.303Z,-1.42
2023-01-25T19:21:10.739Z,-1.43
2023-01-25T19:25:12.624Z,-1.29
2023-01-25T19:29:15.227Z,-1.22
2023-01-25T19:33:17.158Z,-1.02
2023-01-25T19:37:18.631Z,-1.31
2023-01-25T19:41:22.553Z,-1.12
2023-01-25T19:45:24.161Z,-0.74
2023-01-25T19:49:25.659Z,-0.76
2023-01-25T19:53:27.179Z,-1.08
2023-01-25T19:57:28.590Z,-0.86
2023-01-25T20:01:30.249Z,-1.13
2023-01-25T20:05:31.756Z,-1.26
2023-01-25T20:09:33.169Z,-1.31
2023-01-25T20:13:34.603Z,-1.08
2023-01-25T20:17:36.600Z,-1.18
2023-01-25T20:21:39.568Z,-1.00
2023-01-25T20:25:41.029Z,-1.04
2023-01-25T20:29:42.531Z,-0.98
2023-01-25T20:33:44.112Z,-1.13
2023-01-25T20:37:46.735Z,-1.28
2023-01-25T20:41:53.155Z,-1.34
2023-01-25T20:45:56.531Z,-0.94
2023-01-25T20:49:57.945Z,-0.96
2023-01-25T20:53:59.686Z,-0.80
2023-01-25T20:58:01.289Z,-1.18
2023-01-25T21:02:03.042Z,-1.12
2023-01-25T21:06:04.668Z,-1.04
2023-01-25T21:10:06.601Z,-1.09
2023-01-25T21:14:08.125Z,-0.89
2023-01-25T21:18:09.581Z,-0.89
2023-01-25T21:22:11.053Z,-0.95
2023-01-25T21:26:20.997Z,-0.92
2023-01-25T21:30:23.231Z,-1.29
2023-01-25T21:34:24.798Z,-0.99
2023-01-25T21:38:26.356Z,-0.78
2023-01-25T21:42:27.855Z,-1.23
2023-01-25T21:46:29.290Z,-1.35
2023-01-25T21:50:49.513Z,-1.05
2023-01-25T21:54:50.975Z,-1.17
2023-01-25T21:58:52.637Z,-0.95
2023-01-25T22:02:54.123Z,-1.10
2023-01-25T22:06:55.567Z,-0.94
2023-01-25T22:11:07.531Z,-0.89
2023-01-25T22:15:09.238Z,-0.67
2023-01-25T22:19:10.742Z,-0.75
2023-01-25T22:23:12.151Z,-0.66
2023-01-25T22:27:44.572Z,-0.81
2023-01-25T22:31:46.068Z,-0.70
2023-01-25T22:35:47.578Z,-1.14
2023-01-25T22:39:49.093Z,-0.75
2023-01-25T22:43:51.483Z,-1.10
2023-01-25T22:47:52.908Z,-0.80
2023-01-25T22:51:54.372Z,-0.81
2023-01-25T22:56:06.531Z,-1.36
2023-01-25T23:00:09.144Z,-1.08
2023-01-25T23:04:11.109Z,-0.91
2023-01-25T23:08:12.607Z,-1.08
2023-01-25T23:12:14.502Z,-1.02
2023-01-25T23:16:15.975Z,-0.89
2023-01-25T23:20:18.088Z,-1.02
2023-01-25T23:24:19.633Z,-1.17
2023-01-25T23:28:21.162Z,-1.04
2023-01-25T23:32:22.983Z,-0.91
2023-01-25T23:36:33.468Z,-0.70
2023-01-25T23:40:34.893Z,-0.73
2023-01-25T23:44:36.315Z,-0.65
2023-01-25T23:48:37.763Z,-1.13
2023-01-25T23:52:39.204Z,-1.07
2023-01-25T23:56:40.709Z,-1.15
